Terminal Aerodrome Forecast
Issued by NWS Albany, NY

Home | Current Version | Previous Version | Text Only | Print | Product List | Glossary On
Versions: 1 2 3 4 5 6 7 8 9 10 11 12 13 14 15 16 17 18 19 20
873
FTUS41 KALY 200540
TAFGFL
TAF
KGFL 200540Z 2006/2106 20004KT P6SM VCSH SCT060 BKN100
     FM200900 VRB03KT 6SM BR BKN020
     FM201300 26006KT P6SM SCT020 SCT250
     FM201700 27010G16KT P6SM BKN045
     FM202300 26006KT P6SM SCT045=

USA.gov is the U.S. government's official web portal to all federal, state and local government web resources and services.